sensor_id;sensor_type;location;lat;lon;timestamp;pressure;altitude;pressure_sealevel;temperature;humidity
10075;BME280;5076;42.680;23.288;2023-01-31T00:01:06;94476.50;;;-0.48;100.00
10075;BME280;5076;42.680;23.288;2023-01-31T00:03:33;94467.66;;;-0.60;100.00
10075;BME280;5076;42.680;23.288;2023-01-31T00:06:15;94473.28;;;-0.50;100.00
10075;BME280;5076;42.680;23.288;2023-01-31T00:08:42;94482.47;;;-0.54;100.00
10075;BME280;5076;42.680;23.288;2023-01-31T00:11:10;94476.88;;;-0.44;100.00
10075;BME280;5076;42.680;23.288;2023-01-31T00:13:38;94476.88;;;-0.38;100.00
10075;BME280;5076;42.680;23.288;2023-01-31T00:16:06;94469.50;;;-0.34;100.00
10075;BME280;5076;42.680;23.288;2023-01-31T00:18:34;94463.31;;;-0.33;100.00
10075;BME280;5076;42.680;23.288;2023-01-31T00:21:06;94479.91;;;-0.34;100.00
10075;BME280;5076;42.680;23.288;2023-01-31T00:23:33;94474.91;;;-0.36;100.00
10075;BME280;5076;42.680;23.288;2023-01-31T00:26:09;94471.13;;;-0.33;100.00
10075;BME280;5076;42.680;23.288;2023-01-31T00:28:36;94471.47;;;-0.43;100.00
10075;BME280;5076;42.680;23.288;2023-01-31T00:31:04;94465.31;;;-0.35;100.00
10075;BME280;5076;42.680;23.288;2023-01-31T00:33:32;94473.28;;;-0.43;100.00
10075;BME280;5076;42.680;23.288;2023-01-31T00:36:02;94475.88;;;-0.43;100.00
10075;BME280;5076;42.680;23.288;2023-01-31T00:38:29;94474.88;;;-0.55;100.00
10075;BME280;5076;42.680;23.288;2023-01-31T00:40:56;94468.69;;;-0.54;100.00
10075;BME280;5076;42.680;23.288;2023-01-31T00:43:22;94480.47;;;-0.45;100.00
10075;BME280;5076;42.680;23.288;2023-01-31T00:45:49;94476.84;;;-0.57;100.00
10075;BME280;5076;42.680;23.288;2023-01-31T00:48:17;94475.69;;;-0.48;100.00
10075;BME280;5076;42.680;23.288;2023-01-31T00:50:44;94476.47;;;-0.54;100.00
10075;BME280;5076;42.680;23.288;2023-01-31T00:53:11;94468.47;;;-0.59;100.00
10075;BME280;5076;42.680;23.288;2023-01-31T00:55:38;94463.69;;;-0.56;100.00
10075;BME280;5076;42.680;23.288;2023-01-31T00:58:05;94468.47;;;-0.66;100.00
10075;BME280;5076;42.680;23.288;2023-01-31T01:00:32;94464.03;;;-0.85;100.00
10075;BME280;5076;42.680;23.288;2023-01-31T01:02:58;94467.63;;;-0.73;100.00
10075;BME280;5076;42.680;23.288;2023-01-31T01:05:27;94479.19;;;-0.76;100.00
10075;BME280;5076;42.680;23.288;2023-01-31T01:07:54;94481.56;;;-0.94;100.00
10075;BME280;5076;42.680;23.288;2023-01-31T01:10:20;94471.56;;;-0.97;100.00
10075;BME280;5076;42.680;23.288;2023-01-31T01:12:47;94471.16;;;-1.00;100.00
10075;BME280;5076;42.680;23.288;2023-01-31T01:15:14;94476.75;;;-0.90;100.00
10075;BME280;5076;42.680;23.288;2023-01-31T01:17:41;94491.56;;;-0.84;100.00
10075;BME280;5076;42.680;23.288;2023-01-31T01:20:10;94484.38;;;-0.76;100.00
10075;BME280;5076;42.680;23.288;2023-01-31T01:22:38;94478.81;;;-0.73;100.00
10075;BME280;5076;42.680;23.288;2023-01-31T01:25:08;94470.88;;;-0.64;100.00
10075;BME280;5076;42.680;23.288;2023-01-31T01:27:35;94465.47;;;-0.56;100.00
10075;BME280;5076;42.680;23.288;2023-01-31T01:30:02;94465.91;;;-0.46;100.00
10075;BME280;5076;42.680;23.288;2023-01-31T01:32:29;94459.72;;;-0.12;100.00
10075;BME280;5076;42.680;23.288;2023-01-31T01:34:56;94450.53;;;0.12;100.00
10075;BME280;5076;42.680;23.288;2023-01-31T01:37:23;94450.47;;;0.31;100.00
10075;BME280;5076;42.680;23.288;2023-01-31T01:39:51;94452.50;;;0.29;100.00
10075;BME280;5076;42.680;23.288;2023-01-31T01:42:21;94458.06;;;0.40;100.00
10075;BME280;5076;42.680;23.288;2023-01-31T01:44:50;94442.44;;;0.59;100.00
10075;BME280;5076;42.680;23.288;2023-01-31T01:47:22;94467.28;;;0.93;100.00
10075;BME280;5076;42.680;23.288;2023-01-31T01:49:54;94465.28;;;1.02;100.00
10075;BME280;5076;42.680;23.288;2023-01-31T01:52:25;94467.03;;;1.08;100.00
10075;BME280;5076;42.680;23.288;2023-01-31T01:54:59;94459.66;;;1.05;100.00
10075;BME280;5076;42.680;23.288;2023-01-31T01:57:31;94467.88;;;1.02;100.00
10075;BME280;5076;42.680;23.288;2023-01-31T02:00:07;94463.28;;;1.04;100.00
10075;BME280;5076;42.680;23.288;2023-01-31T02:02:35;94447.47;;;0.99;100.00
10075;BME280;5076;42.680;23.288;2023-01-31T02:05:03;94460.22;;;1.07;100.00
10075;BME280;5076;42.680;23.288;2023-01-31T02:07:30;94460.22;;;1.14;100.00
10075;BME280;5076;42.680;23.288;2023-01-31T02:10:02;94463.28;;;1.04;100.00
10075;BME280;5076;42.680;23.288;2023-01-31T02:12:31;94473.28;;;1.00;100.00
10075;BME280;5076;42.680;23.288;2023-01-31T02:14:59;94467.88;;;1.02;100.00
10075;BME280;5076;42.680;23.288;2023-01-31T02:17:26;94466.69;;;0.98;100.00
10075;BME280;5076;42.680;23.288;2023-01-31T02:20:06;94471.53;;;0.88;100.00
10075;BME280;5076;42.680;23.288;2023-01-31T02:22:39;94476.13;;;0.86;100.00
10075;BME280;5076;42.680;23.288;2023-01-31T02:28:46;94468.78;;;0.76;100.00
10075;BME280;5076;42.680;23.288;2023-01-31T02:31:53;94458.78;;;0.73;100.00
10075;BME280;5076;42.680;23.288;2023-01-31T02:34:31;94465.38;;;0.76;100.00
10075;BME280;5076;42.680;23.288;2023-01-31T02:37:09;94474.75;;;0.77;100.00
10075;BME280;5076;42.680;23.288;2023-01-31T02:39:42;94464.78;;;0.74;100.00
10075;BME280;5076;42.680;23.288;2023-01-31T02:42:15;94474.56;;;0.78;100.00
10075;BME280;5076;42.680;23.288;2023-01-31T02:44:49;94471.59;;;0.68;100.00
10075;BME280;5076;42.680;23.288;2023-01-31T02:47:31;94473.59;;;0.73;100.00
10075;BME280;5076;42.680;23.288;2023-01-31T02:50:08;94474.78;;;0.70;100.00
10075;BME280;5076;42.680;23.288;2023-01-31T02:52:44;94492.00;;;0.71;100.00
10075;BME280;5076;42.680;23.288;2023-01-31T02:55:16;94491.59;;;0.67;100.00
10075;BME280;5076;42.680;23.288;2023-01-31T02:58:04;94502.41;;;0.64;100.00
10075;BME280;5076;42.680;23.288;2023-01-31T03:00:34;94494.84;;;0.56;100.00
10075;BME280;5076;42.680;23.288;2023-01-31T03:03:05;94510.03;;;0.59;100.00
10075;BME280;5076;42.680;23.288;2023-01-31T03:05:34;94505.84;;;0.58;100.00
10075;BME280;5076;42.680;23.288;2023-01-31T03:08:02;94516.03;;;0.53;100.00
10075;BME280;5076;42.680;23.288;2023-01-31T03:10:44;94539.63;;;0.58;100.00
10075;BME280;5076;42.680;23.288;2023-01-31T03:13:34;94547.22;;;0.53;100.00
10075;BME280;5076;42.680;23.288;2023-01-31T03:16:16;94543.22;;;0.51;100.00
10075;BME280;5076;42.680;23.288;2023-01-31T03:19:07;94541.22;;;0.46;100.00
10075;BME280;5076;42.680;23.288;2023-01-31T03:21:43;94538.81;;;0.51;100.00
10075;BME280;5076;42.680;23.288;2023-01-31T03:24:14;94539.66;;;0.45;100.00
10075;BME280;5076;42.680;23.288;2023-01-31T03:26:43;94542.25;;;0.45;100.00
10075;BME280;5076;42.680;23.288;2023-01-31T03:29:13;94551.22;;;0.49;100.00
10075;BME280;5076;42.680;23.288;2023-01-31T03:31:43;94544.25;;;0.43;100.00
10075;BME280;5076;42.680;23.288;2023-01-31T03:34:14;94566.81;;;0.49;100.00
10075;BME280;5076;42.680;23.288;2023-01-31T03:36:49;94553.44;;;0.46;100.00
10075;BME280;5076;42.680;23.288;2023-01-31T03:39:28;94567.22;;;0.46;100.00
10075;BME280;5076;42.680;23.288;2023-01-31T03:41:59;94572.84;;;0.43;100.00
10075;BME280;5076;42.680;23.288;2023-01-31T03:44:37;94575.41;;;0.50;100.00
10075;BME280;5076;42.680;23.288;2023-01-31T03:47:10;94594.44;;;0.44;100.00
10075;BME280;5076;42.680;23.288;2023-01-31T03:49:39;94573.81;;;0.49;100.00
10075;BME280;5076;42.680;23.288;2023-01-31T03:52:11;94591.63;;;0.52;100.00
10075;BME280;5076;42.680;23.288;2023-01-31T03:54:42;94585.84;;;0.43;100.00
10075;BME280;5076;42.680;23.288;2023-01-31T03:57:13;94590.44;;;0.41;100.00
10075;BME280;5076;42.680;23.288;2023-01-31T03:59:43;94593.22;;;0.33;100.00
10075;BME280;5076;42.680;23.288;2023-01-31T04:02:14;94598.84;;;0.30;100.00
10075;BME280;5076;42.680;23.288;2023-01-31T04:04:45;94584.41;;;0.21;100.00
10075;BME280;5076;42.680;23.288;2023-01-31T04:07:15;94593.22;;;0.20;100.00
10075;BME280;5076;42.680;23.288;2023-01-31T04:09:43;94598.78;;;0.17;100.00
10075;BME280;5076;42.680;23.288;2023-01-31T04:12:12;94594.00;;;0.20;100.00
10075;BME280;5076;42.680;23.288;2023-01-31T04:14:40;94599.41;;;0.19;100.00
10075;BME280;5076;42.680;23.288;2023-01-31T04:17:07;94589.59;;;0.08;100.00
10075;BME280;5076;42.680;23.288;2023-01-31T04:19:33;94596.00;;;0.12;100.00
10075;BME280;5076;42.680;23.288;2023-01-31T04:22:00;94607.00;;;0.07;100.00
10075;BME280;5076;42.680;23.288;2023-01-31T04:24:28;94602.78;;;-0.01;100.00
10075;BME280;5076;42.680;23.288;2023-01-31T04:26:55;94595.19;;;0.05;100.00
10075;BME280;5076;42.680;23.288;2023-01-31T04:29:22;94598.00;;;-0.04;100.00
10075;BME280;5076;42.680;23.288;2023-01-31T04:31:49;94610.56;;;-0.07;100.00
10075;BME280;5076;42.680;23.288;2023-01-31T04:34:15;94615.94;;;-0.09;100.00
10075;BME280;5076;42.680;23.288;2023-01-31T04:36:42;94612.75;;;-0.11;100.00
10075;BME280;5076;42.680;23.288;2023-01-31T04:39:09;94611.72;;;-0.23;100.00
10075;BME280;5076;42.680;23.288;2023-01-31T04:41:39;94606.09;;;-0.26;100.00
10075;BME280;5076;42.680;23.288;2023-01-31T04:44:06;94608.50;;;-0.25;100.00
10075;BME280;5076;42.680;23.288;2023-01-31T04:46:33;94616.31;;;-0.25;100.00
10075;BME280;5076;42.680;23.288;2023-01-31T04:48:59;94619.91;;;-0.26;100.00
10075;BME280;5076;42.680;23.288;2023-01-31T04:51:26;94617.69;;;-0.29;100.00
10075;BME280;5076;42.680;23.288;2023-01-31T04:53:53;94631.09;;;-0.25;100.00
10075;BME280;5076;42.680;23.288;2023-01-31T04:56:20;94623.31;;;-0.19;100.00
10075;BME280;5076;42.680;23.288;2023-01-31T04:58:49;94624.09;;;-0.31;100.00
10075;BME280;5076;42.680;23.288;2023-01-31T05:01:15;94614.31;;;-0.23;100.00
10075;BME280;5076;42.680;23.288;2023-01-31T05:03:42;94611.91;;;-0.31;100.00
10075;BME280;5076;42.680;23.288;2023-01-31T05:06:09;94627.31;;;-0.23;100.00
10075;BME280;5076;42.680;23.288;2023-01-31T05:08:36;94630.69;;;-0.22;100.00
10075;BME280;5076;42.680;23.288;2023-01-31T05:11:03;94625.31;;;-0.14;100.00
10075;BME280;5076;42.680;23.288;2023-01-31T05:13:31;94627.53;;;-0.18;100.00
10075;BME280;5076;42.680;23.288;2023-01-31T05:16:05;94633.72;;;-0.19;100.00
10075;BME280;5076;42.680;23.288;2023-01-31T05:18:32;94644.72;;;-0.17;100.00
10075;BME280;5076;42.680;23.288;2023-01-31T05:20:59;94643.09;;;-0.11;100.00
10075;BME280;5076;42.680;23.288;2023-01-31T05:23:26;94628.13;;;-0.16;100.00
10075;BME280;5076;42.680;23.288;2023-01-31T05:25:53;94642.91;;;-0.10;100.00
10075;BME280;5076;42.680;23.288;2023-01-31T05:28:20;94634.53;;;-0.05;100.00
10075;BME280;5076;42.680;23.288;2023-01-31T05:30:48;94627.94;;;-0.08;100.00
10075;BME280;5076;42.680;23.288;2023-01-31T05:33:16;94643.13;;;-0.05;100.00
10075;BME280;5076;42.680;23.288;2023-01-31T05:35:45;94640.97;;;-0.01;100.00
10075;BME280;5076;42.680;23.288;2023-01-31T05:38:12;94639.53;;;0.03;100.00
10075;BME280;5076;42.680;23.288;2023-01-31T05:40:39;94629.97;;;-0.03;100.00
10075;BME280;5076;42.680;23.288;2023-01-31T05:43:06;94631.94;;;0.02;100.00
10075;BME280;5076;42.680;23.288;2023-01-31T05:45:32;94631.38;;;0.06;100.00
10075;BME280;5076;42.680;23.288;2023-01-31T05:48:00;94643.16;;;0.09;100.00
10075;BME280;5076;42.680;23.288;2023-01-31T05:50:28;94654.56;;;0.14;100.00
10075;BME280;5076;42.680;23.288;2023-01-31T05:52:58;94651.75;;;0.16;100.00
10075;BME280;5076;42.680;23.288;2023-01-31T05:55:28;94663.97;;;0.15;100.00
10075;BME280;5076;42.680;23.288;2023-01-31T05:57:55;94666.34;;;0.17;100.00
10075;BME280;5076;42.680;23.288;2023-01-31T06:00:22;94662.19;;;0.22;100.00
10075;BME280;5076;42.680;23.288;2023-01-31T06:02:49;94661.59;;;0.27;100.00
10075;BME280;5076;42.680;23.288;2023-01-31T06:05:16;94662.78;;;0.31;100.00
10075;BME280;5076;42.680;23.288;2023-01-31T06:07:44;94654.22;;;0.30;100.00
10075;BME280;5076;42.680;23.288;2023-01-31T06:10:11;94662.41;;;0.41;100.00
10075;BME280;5076;42.680;23.288;2023-01-31T06:12:38;94668.81;;;0.45;100.00
10075;BME280;5076;42.680;23.288;2023-01-31T06:15:06;94662.22;;;0.42;100.00
10075;BME280;5076;42.680;23.288;2023-01-31T06:17:33;94658.59;;;0.50;100.00
10075;BME280;5076;42.680;23.288;2023-01-31T06:20:00;94670.19;;;0.47;100.00
10075;BME280;5076;42.680;23.288;2023-01-31T06:22:26;94655.59;;;0.46;100.00
10075;BME280;5076;42.680;23.288;2023-01-31T06:24:55;94664.81;;;0.42;100.00
10075;BME280;5076;42.680;23.288;2023-01-31T06:27:22;94663.19;;;0.48;100.00
10075;BME280;5076;42.680;23.288;2023-01-31T06:29:49;94670.81;;;0.49;100.00
10075;BME280;5076;42.680;23.288;2023-01-31T06:32:16;94659.63;;;0.55;100.00
10075;BME280;5076;42.680;23.288;2023-01-31T06:34:42;94666.41;;;0.63;100.00
10075;BME280;5076;42.680;23.288;2023-01-31T06:37:10;94671.22;;;0.59;100.00
10075;BME280;5076;42.680;23.288;2023-01-31T06:39:36;94668.00;;;0.64;100.00
10075;BME280;5076;42.680;23.288;2023-01-31T06:42:05;94673.00;;;0.65;100.00
10075;BME280;5076;42.680;23.288;2023-01-31T06:44:32;94669.22;;;0.61;100.00
10075;BME280;5076;42.680;23.288;2023-01-31T06:46:59;94663.44;;;0.59;100.00
10075;BME280;5076;42.680;23.288;2023-01-31T06:49:26;94663.22;;;0.67;100.00
10075;BME280;5076;42.680;23.288;2023-01-31T06:51:53;94662.00;;;0.77;100.00
10075;BME280;5076;42.680;23.288;2023-01-31T06:54:20;94658.03;;;0.54;100.00
10075;BME280;5076;42.680;23.288;2023-01-31T06:56:46;94661.41;;;0.68;100.00
10075;BME280;5076;42.680;23.288;2023-01-31T06:59:15;94683.03;;;0.82;100.00
10075;BME280;5076;42.680;23.288;2023-01-31T07:01:42;94680.22;;;0.83;100.00
10075;BME280;5076;42.680;23.288;2023-01-31T07:04:11;94670.22;;;0.67;100.00
10075;BME280;5076;42.680;23.288;2023-01-31T07:06:37;94676.22;;;0.87;100.00
10075;BME280;5076;42.680;23.288;2023-01-31T07:09:04;94677.41;;;0.98;100.00
10075;BME280;5076;42.680;23.288;2023-01-31T07:11:32;94694.22;;;0.95;100.00
10075;BME280;5076;42.680;23.288;2023-01-31T07:13:59;94673.78;;;1.12;100.00
10075;BME280;5076;42.680;23.288;2023-01-31T07:16:27;94687.41;;;1.14;100.00
10075;BME280;5076;42.680;23.288;2023-01-31T07:18:55;94678.81;;;1.20;100.00
10075;BME280;5076;42.680;23.288;2023-01-31T07:21:22;94677.78;;;1.08;100.00
10075;BME280;5076;42.680;23.288;2023-01-31T07:23:50;94687.63;;;0.99;100.00
10075;BME280;5076;42.680;23.288;2023-01-31T07:26:17;94690.00;;;1.08;100.00
10075;BME280;5076;42.680;23.288;2023-01-31T07:28:44;94705.84;;;1.06;100.00
10075;BME280;5076;42.680;23.288;2023-01-31T07:31:13;94680.41;;;1.01;100.00
10075;BME280;5076;42.680;23.288;2023-01-31T07:33:41;94689.38;;;1.25;100.00
10075;BME280;5076;42.680;23.288;2023-01-31T07:36:11;94688.00;;;1.10;100.00
10075;BME280;5076;42.680;23.288;2023-01-31T07:38:38;94681.22;;;1.02;100.00
10075;BME280;5076;42.680;23.288;2023-01-31T07:41:06;94691.81;;;1.14;100.00
10075;BME280;5076;42.680;23.288;2023-01-31T07:43:34;94688.00;;;1.16;100.00
10075;BME280;5076;42.680;23.288;2023-01-31T07:46:01;94699.81;;;1.19;100.00
10075;BME280;5076;42.680;23.288;2023-01-31T07:48:28;94700.19;;;1.22;100.00
10075;BME280;5076;42.680;23.288;2023-01-31T07:51:00;94702.03;;;1.02;100.00
10075;BME280;5076;42.680;23.288;2023-01-31T07:53:29;94707.63;;;1.12;100.00
10075;BME280;5076;42.680;23.288;2023-01-31T07:56:04;94700.03;;;1.17;100.00
10075;BME280;5076;42.680;23.288;2023-01-31T07:58:33;94693.03;;;1.18;100.00
10075;BME280;5076;42.680;23.288;2023-01-31T08:01:00;94697.78;;;1.27;100.00
10075;BME280;5076;42.680;23.288;2023-01-31T08:03:44;94711.81;;;1.26;100.00
10075;BME280;5076;42.680;23.288;2023-01-31T08:06:13;94705.03;;;1.05;100.00
10075;BME280;5076;42.680;23.288;2023-01-31T08:08:41;94698.41;;;1.29;100.00
10075;BME280;5076;42.680;23.288;2023-01-31T08:11:08;94697.78;;;1.47;100.00
10075;BME280;5076;42.680;23.288;2023-01-31T08:13:36;94693.94;;;1.63;100.00
10075;BME280;5076;42.680;23.288;2023-01-31T08:16:05;94701.38;;;1.53;100.00
10075;BME280;5076;42.680;23.288;2023-01-31T08:18:32;94697.09;;;1.78;100.00
10075;BME280;5076;42.680;23.288;2023-01-31T08:20:59;94690.16;;;2.03;100.00
10075;BME280;5076;42.680;23.288;2023-01-31T08:23:27;94688.53;;;2.09;100.00
10075;BME280;5076;42.680;23.288;2023-01-31T08:25:59;94697.88;;;2.23;100.00
10075;BME280;5076;42.680;23.288;2023-01-31T08:28:26;94682.47;;;2.15;100.00
10075;BME280;5076;42.680;23.288;2023-01-31T08:30:53;94678.53;;;2.44;100.00
10075;BME280;5076;42.680;23.288;2023-01-31T08:33:20;94682.19;;;2.61;100.00
10075;BME280;5076;42.680;23.288;2023-01-31T08:35:46;94681.75;;;2.71;100.00
10075;BME280;5076;42.680;23.288;2023-01-31T08:38:13;94674.31;;;2.43;100.00
10075;BME280;5076;42.680;23.288;2023-01-31T08:40:42;94689.88;;;2.25;100.00
10075;BME280;5076;42.680;23.288;2023-01-31T08:43:08;94685.78;;;1.97;100.00
10075;BME280;5076;42.680;23.288;2023-01-31T08:45:35;94688.16;;;1.99;100.00
10075;BME280;5076;42.680;23.288;2023-01-31T08:48:02;94684.94;;;2.10;100.00
10075;BME280;5076;42.680;23.288;2023-01-31T08:50:31;94684.81;;;2.30;100.00
10075;BME280;5076;42.680;23.288;2023-01-31T08:52:59;94684.50;;;2.51;100.00
10075;BME280;5076;42.680;23.288;2023-01-31T08:55:27;94685.50;;;2.50;100.00
10075;BME280;5076;42.680;23.288;2023-01-31T08:57:56;94686.09;;;2.77;100.00
10075;BME280;5076;42.680;23.288;2023-01-31T09:00:23;94690.53;;;2.76;100.00
10075;BME280;5076;42.680;23.288;2023-01-31T09:02:50;94693.41;;;2.68;100.00
10075;BME280;5076;42.680;23.288;2023-01-31T09:05:17;94671.31;;;2.71;100.00
10075;BME280;5076;42.680;23.288;2023-01-31T09:07:44;94676.16;;;2.67;100.00
10075;BME280;5076;42.680;23.288;2023-01-31T09:10:11;94683.34;;;2.72;100.00
10075;BME280;5076;42.680;23.288;2023-01-31T09:12:38;94684.69;;;2.81;100.00
10075;BME280;5076;42.680;23.288;2023-01-31T09:15:07;94688.50;;;2.78;100.00
10075;BME280;5076;42.680;23.288;2023-01-31T09:17:34;94676.75;;;2.69;100.00
10075;BME280;5076;42.680;23.288;2023-01-31T09:20:01;94691.59;;;2.94;100.00
10075;BME280;5076;42.680;23.288;2023-01-31T09:22:31;94668.16;;;3.12;100.00
10075;BME280;5076;42.680;23.288;2023-01-31T09:24:58;94676.84;;;3.06;100.00
10075;BME280;5076;42.680;23.288;2023-01-31T09:27:27;94676.31;;;2.72;100.00
10075;BME280;5076;42.680;23.288;2023-01-31T09:29:54;94676.22;;;2.86;100.00
10075;BME280;5076;42.680;23.288;2023-01-31T09:32:23;94660.28;;;2.94;100.00
10075;BME280;5076;42.680;23.288;2023-01-31T09:34:49;94653.81;;;3.21;100.00
10075;BME280;5076;42.680;23.288;2023-01-31T09:37:16;94667.06;;;3.01;100.00
10075;BME280;5076;42.680;23.288;2023-01-31T09:39:43;94655.78;;;2.82;100.00
10075;BME280;5076;42.680;23.288;2023-01-31T09:42:18;94677.28;;;2.78;100.00
10075;BME280;5076;42.680;23.288;2023-01-31T09:44:56;94660.81;;;2.77;100.00
10075;BME280;5076;42.680;23.288;2023-01-31T09:47:27;94659.59;;;2.80;100.00
10075;BME280;5076;42.680;23.288;2023-01-31T09:49:59;94647.63;;;2.72;100.00
10075;BME280;5076;42.680;23.288;2023-01-31T09:52:26;94655.78;;;2.82;100.00
10075;BME280;5076;42.680;23.288;2023-01-31T09:54:55;94633.50;;;3.05;100.00
10075;BME280;5076;42.680;23.288;2023-01-31T09:57:30;94627.59;;;2.66;100.00
10075;BME280;5076;42.680;23.288;2023-01-31T10:00:11;94635.31;;;3.04;100.00
10075;BME280;5076;42.680;23.288;2023-01-31T10:05:59;94630.75;;;3.18;100.00
10075;BME280;5076;42.680;23.288;2023-01-31T10:08:38;94639.81;;;3.15;100.00
10075;BME280;5076;42.680;23.288;2023-01-31T10:11:10;94623.53;;;2.95;100.00
10075;BME280;5076;42.680;23.288;2023-01-31T10:13:45;94624.56;;;3.12;100.00
10075;BME280;5076;42.680;23.288;2023-01-31T10:16:20;94619.28;;;3.01;100.00
10075;BME280;5076;42.680;23.288;2023-01-31T10:18:51;94618.69;;;2.99;100.00
10075;BME280;5076;42.680;23.288;2023-01-31T10:21:26;94609.72;;;3.31;100.00
10075;BME280;5076;42.680;23.288;2023-01-31T10:23:58;94631.31;;;3.02;100.00
10075;BME280;5076;42.680;23.288;2023-01-31T10:26:29;94620.03;;;3.26;100.00
10075;BME280;5076;42.680;23.288;2023-01-31T10:28:59;94611.34;;;3.32;100.00
10075;BME280;5076;42.680;23.288;2023-01-31T10:31:32;94616.78;;;3.31;100.00
10075;BME280;5076;42.680;23.288;2023-01-31T10:34:04;94630.47;;;3.26;100.00
10075;BME280;5076;42.680;23.288;2023-01-31T10:36:37;94613.91;;;3.69;100.00
10075;BME280;5076;42.680;23.288;2023-01-31T10:39:14;94597.09;;;3.28;100.00
10075;BME280;5076;42.680;23.288;2023-01-31T10:41:58;94615.66;;;3.02;100.00
10075;BME280;5076;42.680;23.288;2023-01-31T10:44:38;94614.44;;;2.79;100.00
10075;BME280;5076;42.680;23.288;2023-01-31T10:47:11;94602.19;;;2.80;100.00
10075;BME280;5076;42.680;23.288;2023-01-31T10:49:38;94612.84;;;3.03;100.00
10075;BME280;5076;42.680;23.288;2023-01-31T10:52:24;94611.72;;;2.93;100.00
10075;BME280;5076;42.680;23.288;2023-01-31T10:55:03;94637.84;;;3.11;100.00
10075;BME280;5076;42.680;23.288;2023-01-31T10:57:34;94615.69;;;3.20;100.00
10075;BME280;5076;42.680;23.288;2023-01-31T11:00:02;94616.13;;;2.92;100.00
10075;BME280;5076;42.680;23.288;2023-01-31T11:02:30;94634.13;;;3.00;100.00
10075;BME280;5076;42.680;23.288;2023-01-31T11:04:58;94626.69;;;3.22;100.00
10075;BME280;5076;42.680;23.288;2023-01-31T11:07:29;94621.88;;;3.01;100.00
10075;BME280;5076;42.680;23.288;2023-01-31T11:09:58;94628.00;;;3.13;100.00
10075;BME280;5076;42.680;23.288;2023-01-31T11:12:40;94619.31;;;2.94;100.00
10075;BME280;5076;42.680;23.288;2023-01-31T11:15:14;94616.78;;;3.06;100.00
10075;BME280;5076;42.680;23.288;2023-01-31T11:17:43;94620.53;;;2.92;100.00
10075;BME280;5076;42.680;23.288;2023-01-31T11:20:21;94631.38;;;2.95;100.00
10075;BME280;5076;42.680;23.288;2023-01-31T11:22:52;94627.09;;;3.01;100.00
10075;BME280;5076;42.680;23.288;2023-01-31T11:25:21;94620.31;;;3.18;100.00
10075;BME280;5076;42.680;23.288;2023-01-31T11:27:51;94615.09;;;2.75;100.00
10075;BME280;5076;42.680;23.288;2023-01-31T11:30:22;94615.94;;;2.69;100.00
10075;BME280;5076;42.680;23.288;2023-01-31T11:32:51;94627.28;;;2.81;100.00
10075;BME280;5076;42.680;23.288;2023-01-31T11:35:24;94644.94;;;2.54;100.00
10075;BME280;5076;42.680;23.288;2023-01-31T11:37:55;94642.09;;;2.31;100.00
10075;BME280;5076;42.680;23.288;2023-01-31T11:40:27;94647.03;;;2.07;100.00
10075;BME280;5076;42.680;23.288;2023-01-31T11:42:57;94634.56;;;2.16;100.00
10075;BME280;5076;42.680;23.288;2023-01-31T11:45:25;94625.44;;;2.32;100.00
10075;BME280;5076;42.680;23.288;2023-01-31T11:47:56;94628.81;;;2.07;100.00
10075;BME280;5076;42.680;23.288;2023-01-31T11:50:25;94629.53;;;2.21;100.00
10075;BME280;5076;42.680;23.288;2023-01-31T11:52:59;94652.06;;;2.02;100.00
10075;BME280;5076;42.680;23.288;2023-01-31T11:55:34;94652.19;;;1.83;100.00
10075;BME280;5076;42.680;23.288;2023-01-31T11:58:05;94639.78;;;1.78;100.00
10075;BME280;5076;42.680;23.288;2023-01-31T12:00:35;94630.09;;;1.85;100.00
10075;BME280;5076;42.680;23.288;2023-01-31T12:03:04;94643.72;;;1.94;100.00
10075;BME280;5076;42.680;23.288;2023-01-31T12:05:36;94640.59;;;1.72;100.00
10075;BME280;5076;42.680;23.288;2023-01-31T12:08:25;94644.97;;;1.78;100.00
10075;BME280;5076;42.680;23.288;2023-01-31T12:10:53;94638.19;;;1.70;100.00
10075;BME280;5076;42.680;23.288;2023-01-31T12:13:21;94643.59;;;1.69;100.00
10075;BME280;5076;42.680;23.288;2023-01-31T12:15:53;94650.19;;;1.78;100.00
10075;BME280;5076;42.680;23.288;2023-01-31T12:18:35;94630.09;;;1.85;100.00
10075;BME280;5076;42.680;23.288;2023-01-31T12:21:09;94633.91;;;1.89;100.00
10075;BME280;5076;42.680;23.288;2023-01-31T12:23:46;94647.53;;;1.91;100.00
10075;BME280;5076;42.680;23.288;2023-01-31T12:26:22;94641.69;;;1.96;100.00
10075;BME280;5076;42.680;23.288;2023-01-31T12:29:02;94631.75;;;1.80;100.00
10075;BME280;5076;42.680;23.288;2023-01-31T12:31:57;94635.28;;;1.92;100.00
10075;BME280;5076;42.680;23.288;2023-01-31T12:34:37;94633.97;;;1.76;100.00
10075;BME280;5076;42.680;23.288;2023-01-31T12:37:18;94620.06;;;1.89;100.00
10075;BME280;5076;42.680;23.288;2023-01-31T12:40:03;94624.78;;;2.11;100.00
10075;BME280;5076;42.680;23.288;2023-01-31T12:42:47;94628.19;;;2.05;100.00
10075;BME280;5076;42.680;23.288;2023-01-31T12:45:26;94633.81;;;2.02;100.00
10075;BME280;5076;42.680;23.288;2023-01-31T12:48:18;94628.63;;;2.02;100.00
10075;BME280;5076;42.680;23.288;2023-01-31T12:51:01;94635.63;;;2.02;100.00
10075;BME280;5076;42.680;23.288;2023-01-31T12:53:41;94623.59;;;2.07;100.00
10075;BME280;5076;42.680;23.288;2023-01-31T12:56:46;94635.63;;;2.02;100.00
10075;BME280;5076;42.680;23.288;2023-01-31T12:59:28;94637.28;;;1.96;100.00
10075;BME280;5076;42.680;23.288;2023-01-31T13:02:01;94641.03;;;2.07;100.00
10075;BME280;5076;42.680;23.288;2023-01-31T13:04:38;94637.28;;;1.96;100.00
10075;BME280;5076;42.680;23.288;2023-01-31T13:07:12;94638.09;;;1.90;100.00
10075;BME280;5076;42.680;23.288;2023-01-31T13:09:41;94635.50;;;1.90;100.00
10075;BME280;5076;42.680;23.288;2023-01-31T13:12:14;94647.31;;;1.93;100.00
10075;BME280;5076;42.680;23.288;2023-01-31T13:14:47;94628.41;;;2.04;100.00
10075;BME280;5076;42.680;23.288;2023-01-31T13:17:17;94640.81;;;2.08;100.00
10075;BME280;5076;42.680;23.288;2023-01-31T13:19:50;94638.41;;;2.14;100.00
10075;BME280;5076;42.680;23.288;2023-01-31T13:22:21;94637.53;;;2.20;100.00